sensor_id;sensor_type;location;lat;lon;timestamp;pressure;altitude;pressure_sealevel;temperature;humidity
34482;BME280;20720;48.886;9.388;2023-01-30T00:00:11;99096.63;;;-1.09;100.00
34482;BME280;20720;48.886;9.388;2023-01-30T00:02:36;99092.19;;;-1.07;100.00
34482;BME280;20720;48.886;9.388;2023-01-30T00:05:02;99091.50;;;-1.21;100.00
34482;BME280;20720;48.886;9.388;2023-01-30T00:07:27;99070.19;;;-1.00;100.00
34482;BME280;20720;48.886;9.388;2023-01-30T00:09:52;99063.19;;;-1.34;100.00
34482;BME280;20720;48.886;9.388;2023-01-30T00:12:17;99050.13;;;-0.83;100.00
34482;BME280;20720;48.886;9.388;2023-01-30T00:14:43;99062.25;;;-0.97;100.00
34482;BME280;20720;48.886;9.388;2023-01-30T00:17:08;99050.94;;;-1.07;100.00
34482;BME280;20720;48.886;9.388;2023-01-30T00:19:33;99051.94;;;-0.97;100.00
34482;BME280;20720;48.886;9.388;2023-01-30T00:21:58;99049.84;;;-0.91;100.00
34482;BME280;20720;48.886;9.388;2023-01-30T00:24:24;99058.78;;;-1.57;100.00
34482;BME280;20720;48.886;9.388;2023-01-30T00:26:49;99056.22;;;-1.21;100.00
34482;BME280;20720;48.886;9.388;2023-01-30T00:29:14;99053.94;;;-1.13;100.00
34482;BME280;20720;48.886;9.388;2023-01-30T00:31:39;99041.84;;;-1.00;100.00
34482;BME280;20720;48.886;9.388;2023-01-30T00:34:05;99038.38;;;-0.87;100.00
34482;BME280;20720;48.886;9.388;2023-01-30T00:36:30;99034.81;;;-0.98;100.00
34482;BME280;20720;48.886;9.388;2023-01-30T00:38:56;99044.22;;;-0.97;100.00
34482;BME280;20720;48.886;9.388;2023-01-30T00:41:22;99041.28;;;-1.52;100.00
34482;BME280;20720;48.886;9.388;2023-01-30T00:43:47;99032.06;;;-1.07;100.00
34482;BME280;20720;48.886;9.388;2023-01-30T00:46:32;99041.06;;;-1.13;100.00
34482;BME280;20720;48.886;9.388;2023-01-30T00:49:17;99054.38;;;-1.19;100.00
34482;BME280;20720;48.886;9.388;2023-01-30T00:51:43;99063.25;;;-1.23;100.00
34482;BME280;20720;48.886;9.388;2023-01-30T00:54:09;99071.59;;;-1.19;100.00
34482;BME280;20720;48.886;9.388;2023-01-30T00:56:34;99072.75;;;-1.23;100.00
34482;BME280;20720;48.886;9.388;2023-01-30T00:58:59;99079.59;;;-1.47;100.00
34482;BME280;20720;48.886;9.388;2023-01-30T01:01:25;99090.72;;;-1.47;100.00
34482;BME280;20720;48.886;9.388;2023-01-30T01:03:51;99103.69;;;-1.23;100.00
34482;BME280;20720;48.886;9.388;2023-01-30T01:06:16;99101.25;;;-1.01;100.00
34482;BME280;20720;48.886;9.388;2023-01-30T01:08:41;99113.09;;;-0.99;100.00
34482;BME280;20720;48.886;9.388;2023-01-30T01:11:06;99109.16;;;-1.04;100.00
34482;BME280;20720;48.886;9.388;2023-01-30T01:13:32;99103.03;;;-1.14;100.00
34482;BME280;20720;48.886;9.388;2023-01-30T01:15:57;99101.25;;;-1.75;100.00
34482;BME280;20720;48.886;9.388;2023-01-30T01:18:22;99106.97;;;-1.34;100.00
34482;BME280;20720;48.886;9.388;2023-01-30T01:20:47;99112.03;;;-1.20;100.00
34482;BME280;20720;48.886;9.388;2023-01-30T01:23:13;99112.94;;;-1.21;100.00
34482;BME280;20720;48.886;9.388;2023-01-30T01:25:38;99112.88;;;-0.96;100.00
34482;BME280;20720;48.886;9.388;2023-01-30T01:28:04;99115.34;;;-0.94;100.00
34482;BME280;20720;48.886;9.388;2023-01-30T01:30:29;99129.13;;;-0.82;100.00
34482;BME280;20720;48.886;9.388;2023-01-30T01:32:56;99130.69;;;-0.80;100.00
34482;BME280;20720;48.886;9.388;2023-01-30T01:35:21;99125.16;;;-0.63;100.00
34482;BME280;20720;48.886;9.388;2023-01-30T01:37:46;99125.31;;;-0.53;100.00
34482;BME280;20720;48.886;9.388;2023-01-30T01:40:17;99113.88;;;-0.38;100.00
34482;BME280;20720;48.886;9.388;2023-01-30T01:43:08;99124.34;;;-1.00;100.00
34482;BME280;20720;48.886;9.388;2023-01-30T01:45:38;99116.44;;;-0.49;100.00
34482;BME280;20720;48.886;9.388;2023-01-30T01:48:15;99099.31;;;-0.16;100.00
34482;BME280;20720;48.886;9.388;2023-01-30T01:50:46;99116.78;;;-0.19;100.00
34482;BME280;20720;48.886;9.388;2023-01-30T01:53:16;99113.88;;;-0.04;100.00
34482;BME280;20720;48.886;9.388;2023-01-30T01:55:45;99096.84;;;-0.17;100.00
34482;BME280;20720;48.886;9.388;2023-01-30T02:00:47;99101.53;;;-0.11;100.00
34482;BME280;20720;48.886;9.388;2023-01-30T02:03:17;99110.78;;;0.15;100.00
34482;BME280;20720;48.886;9.388;2023-01-30T02:05:49;99113.69;;;0.22;100.00
34482;BME280;20720;48.886;9.388;2023-01-30T02:08:21;99102.22;;;0.37;100.00
34482;BME280;20720;48.886;9.388;2023-01-30T02:10:59;99104.91;;;0.46;100.00
34482;BME280;20720;48.886;9.388;2023-01-30T02:13:27;99096.69;;;0.52;100.00
34482;BME280;20720;48.886;9.388;2023-01-30T02:15:54;99085.28;;;0.11;100.00
34482;BME280;20720;48.886;9.388;2023-01-30T02:18:21;99079.97;;;0.12;100.00
34482;BME280;20720;48.886;9.388;2023-01-30T02:43:05;99020.34;;;0.37;100.00
34482;BME280;20720;48.886;9.388;2023-01-30T02:45:44;99010.34;;;0.44;100.00
34482;BME280;20720;48.886;9.388;2023-01-30T02:51:05;99020.09;;;0.51;100.00
34482;BME280;20720;48.886;9.388;2023-01-30T02:53:34;99031.19;;;0.96;100.00
34482;BME280;20720;48.886;9.388;2023-01-30T02:56:00;99023.75;;;1.03;100.00
34482;BME280;20720;48.886;9.388;2023-01-30T02:58:29;99019.56;;;0.90;100.00
34482;BME280;20720;48.886;9.388;2023-01-30T03:14:59;98988.06;;;0.97;100.00
34482;BME280;20720;48.886;9.388;2023-01-30T03:17:28;98943.53;;;0.82;100.00
34482;BME280;20720;48.886;9.388;2023-01-30T03:19:56;98932.44;;;0.59;100.00
34482;BME280;20720;48.886;9.388;2023-01-30T03:22:22;98935.81;;;1.03;100.00
34482;BME280;20720;48.886;9.388;2023-01-30T03:24:49;98925.81;;;0.77;100.00
34482;BME280;20720;48.886;9.388;2023-01-30T03:27:15;98910.84;;;0.92;100.00
34482;BME280;20720;48.886;9.388;2023-01-30T03:29:41;98899.06;;;0.67;100.00
34482;BME280;20720;48.886;9.388;2023-01-30T03:32:07;98896.38;;;1.10;100.00
34482;BME280;20720;48.886;9.388;2023-01-30T03:34:32;98893.69;;;1.12;100.00
34482;BME280;20720;48.886;9.388;2023-01-30T03:36:57;98901.19;;;1.15;100.00
34482;BME280;20720;48.886;9.388;2023-01-30T03:39:23;98913.00;;;1.49;100.00
34482;BME280;20720;48.886;9.388;2023-01-30T03:41:50;98917.06;;;1.72;100.00
34482;BME280;20720;48.886;9.388;2023-01-30T03:44:15;98924.91;;;1.20;100.00
34482;BME280;20720;48.886;9.388;2023-01-30T03:46:41;98927.13;;;1.45;100.00
34482;BME280;20720;48.886;9.388;2023-01-30T03:49:06;98935.19;;;1.31;100.00
34482;BME280;20720;48.886;9.388;2023-01-30T03:51:31;98930.78;;;1.22;100.00
34482;BME280;20720;48.886;9.388;2023-01-30T03:53:56;98923.44;;;1.68;100.00
34482;BME280;20720;48.886;9.388;2023-01-30T03:56:22;98910.13;;;1.52;100.00
34482;BME280;20720;48.886;9.388;2023-01-30T03:58:47;98908.75;;;1.78;100.00
34482;BME280;20720;48.886;9.388;2023-01-30T04:01:12;98912.72;;;1.52;100.00
34482;BME280;20720;48.886;9.388;2023-01-30T04:03:37;98912.41;;;1.96;100.00
34482;BME280;20720;48.886;9.388;2023-01-30T04:06:03;98909.72;;;2.07;100.00
34482;BME280;20720;48.886;9.388;2023-01-30T04:08:28;98916.38;;;2.00;100.00
34482;BME280;20720;48.886;9.388;2023-01-30T04:10:53;98925.69;;;1.82;100.00
34482;BME280;20720;48.886;9.388;2023-01-30T04:13:18;98924.22;;;1.59;100.00
34482;BME280;20720;48.886;9.388;2023-01-30T04:15:44;98911.94;;;1.81;100.00
34482;BME280;20720;48.886;9.388;2023-01-30T04:18:09;98904.25;;;2.10;100.00
34482;BME280;20720;48.886;9.388;2023-01-30T04:20:34;98912.78;;;2.31;100.00
34482;BME280;20720;48.886;9.388;2023-01-30T04:23:00;98914.06;;;2.07;100.00
34482;BME280;20720;48.886;9.388;2023-01-30T04:25:25;98917.16;;;2.31;100.00
34482;BME280;20720;48.886;9.388;2023-01-30T04:27:50;98913.09;;;1.98;100.00
34482;BME280;20720;48.886;9.388;2023-01-30T04:30:16;98912.63;;;1.83;100.00
34482;BME280;20720;48.886;9.388;2023-01-30T04:32:41;98905.84;;;1.92;100.00
34482;BME280;20720;48.886;9.388;2023-01-30T04:35:06;98915.97;;;1.74;100.00
34482;BME280;20720;48.886;9.388;2023-01-30T04:37:32;98916.94;;;1.73;100.00
34482;BME280;20720;48.886;9.388;2023-01-30T04:39:57;98911.00;;;1.92;100.00
34482;BME280;20720;48.886;9.388;2023-01-30T04:42:22;98902.63;;;2.09;100.00
34482;BME280;20720;48.886;9.388;2023-01-30T04:44:47;98901.75;;;1.99;100.00
34482;BME280;20720;48.886;9.388;2023-01-30T04:47:13;98904.03;;;1.83;100.00
34482;BME280;20720;48.886;9.388;2023-01-30T04:49:38;98902.28;;;1.63;100.00
34482;BME280;20720;48.886;9.388;2023-01-30T04:52:03;98899.09;;;1.80;100.00
34482;BME280;20720;48.886;9.388;2023-01-30T04:54:29;98906.59;;;2.13;100.00
34482;BME280;20720;48.886;9.388;2023-01-30T04:56:54;98917.28;;;1.89;100.00
34482;BME280;20720;48.886;9.388;2023-01-30T04:59:19;98922.41;;;1.80;100.00
34482;BME280;20720;48.886;9.388;2023-01-30T05:01:44;98917.19;;;2.40;100.00
34482;BME280;20720;48.886;9.388;2023-01-30T05:04:10;98909.47;;;2.20;100.00
34482;BME280;20720;48.886;9.388;2023-01-30T05:06:35;98899.03;;;1.91;100.00
34482;BME280;20720;48.886;9.388;2023-01-30T05:09:01;98896.34;;;2.02;100.00
34482;BME280;20720;48.886;9.388;2023-01-30T05:11:28;98897.97;;;2.03;100.00
34482;BME280;20720;48.886;9.388;2023-01-30T05:13:54;98891.28;;;2.01;100.00
34482;BME280;20720;48.886;9.388;2023-01-30T05:16:20;98887.34;;;2.06;100.00
34482;BME280;20720;48.886;9.388;2023-01-30T05:18:46;98878.56;;;1.88;100.00
34482;BME280;20720;48.886;9.388;2023-01-30T05:23:38;98891.25;;;2.59;100.00
34482;BME280;20720;48.886;9.388;2023-01-30T05:26:04;98895.78;;;2.76;100.00
34482;BME280;20720;48.886;9.388;2023-01-30T05:28:30;98889.22;;;2.82;100.00
34482;BME280;20720;48.886;9.388;2023-01-30T05:31:02;98874.84;;;2.30;100.00
34482;BME280;20720;48.886;9.388;2023-01-30T05:33:27;98867.22;;;2.29;100.00
34482;BME280;20720;48.886;9.388;2023-01-30T05:35:52;98866.56;;;2.36;100.00
34482;BME280;20720;48.886;9.388;2023-01-30T05:38:18;98863.00;;;2.56;100.00
34482;BME280;20720;48.886;9.388;2023-01-30T05:40:43;98867.22;;;3.05;100.00
34482;BME280;20720;48.886;9.388;2023-01-30T05:43:08;98877.91;;;3.02;100.00
34482;BME280;20720;48.886;9.388;2023-01-30T05:45:34;98882.09;;;3.13;100.00
34482;BME280;20720;48.886;9.388;2023-01-30T05:48:00;98881.72;;;2.98;100.00
34482;BME280;20720;48.886;9.388;2023-01-30T05:50:26;98868.59;;;3.19;100.00
34482;BME280;20720;48.886;9.388;2023-01-30T05:52:51;98875.81;;;3.25;100.00
34482;BME280;20720;48.886;9.388;2023-01-30T05:55:16;98878.97;;;3.00;100.00
34482;BME280;20720;48.886;9.388;2023-01-30T05:57:41;98885.16;;;2.89;100.00
34482;BME280;20720;48.886;9.388;2023-01-30T06:00:07;98881.66;;;2.31;100.00
34482;BME280;20720;48.886;9.388;2023-01-30T06:02:34;98877.88;;;2.54;100.00
34482;BME280;20720;48.886;9.388;2023-01-30T06:04:59;98851.75;;;2.18;100.00
34482;BME280;20720;48.886;9.388;2023-01-30T06:07:24;98856.03;;;2.38;100.00
34482;BME280;20720;48.886;9.388;2023-01-30T06:09:50;98850.97;;;2.17;100.00
34482;BME280;20720;48.886;9.388;2023-01-30T06:12:15;98848.66;;;2.43;100.00
34482;BME280;20720;48.886;9.388;2023-01-30T06:14:40;98839.09;;;2.24;100.00
34482;BME280;20720;48.886;9.388;2023-01-30T06:17:06;98832.31;;;2.61;100.00
34482;BME280;20720;48.886;9.388;2023-01-30T06:19:31;98827.13;;;2.61;100.00
34482;BME280;20720;48.886;9.388;2023-01-30T06:21:56;98826.31;;;2.51;100.00
34482;BME280;20720;48.886;9.388;2023-01-30T06:24:21;98827.94;;;2.71;100.00
34482;BME280;20720;48.886;9.388;2023-01-30T06:26:47;98834.22;;;2.59;100.00
34482;BME280;20720;48.886;9.388;2023-01-30T06:29:12;98837.22;;;2.45;100.00
34482;BME280;20720;48.886;9.388;2023-01-30T06:31:37;98837.47;;;3.00;100.00
34482;BME280;20720;48.886;9.388;2023-01-30T06:34:03;98829.72;;;2.61;100.00
34482;BME280;20720;48.886;9.388;2023-01-30T06:36:28;98826.41;;;2.98;100.00
34482;BME280;20720;48.886;9.388;2023-01-30T06:38:54;98843.50;;;2.71;100.00
34482;BME280;20720;48.886;9.388;2023-01-30T06:41:19;98836.63;;;3.09;100.00
34482;BME280;20720;48.886;9.388;2023-01-30T06:43:44;98848.00;;;2.98;100.00
34482;BME280;20720;48.886;9.388;2023-01-30T06:46:10;98850.19;;;3.03;100.00
34482;BME280;20720;48.886;9.388;2023-01-30T06:48:35;98855.44;;;3.30;100.00
34482;BME280;20720;48.886;9.388;2023-01-30T06:51:00;98851.97;;;2.93;100.00
34482;BME280;20720;48.886;9.388;2023-01-30T06:53:26;98847.16;;;2.50;100.00
34482;BME280;20720;48.886;9.388;2023-01-30T06:55:56;98836.41;;;2.83;100.00
34482;BME280;20720;48.886;9.388;2023-01-30T06:58:21;98842.13;;;2.77;100.00
34482;BME280;20720;48.886;9.388;2023-01-30T07:00:46;98846.38;;;2.97;100.00
34482;BME280;20720;48.886;9.388;2023-01-30T07:03:14;98837.09;;;2.66;100.00
34482;BME280;20720;48.886;9.388;2023-01-30T07:05:40;98843.22;;;2.74;100.00
34482;BME280;20720;48.886;9.388;2023-01-30T07:08:06;98836.69;;;2.42;100.00
34482;BME280;20720;48.886;9.388;2023-01-30T07:10:31;98841.19;;;2.49;100.00
34482;BME280;20720;48.886;9.388;2023-01-30T07:12:57;98855.94;;;2.87;100.00
34482;BME280;20720;48.886;9.388;2023-01-30T07:15:23;98857.16;;;2.54;100.00
34482;BME280;20720;48.886;9.388;2023-01-30T07:17:48;98872.84;;;3.01;100.00
34482;BME280;20720;48.886;9.388;2023-01-30T07:20:14;98878.16;;;2.51;100.00
34482;BME280;20720;48.886;9.388;2023-01-30T07:22:39;98869.84;;;2.57;100.00
34482;BME280;20720;48.886;9.388;2023-01-30T07:25:05;98869.72;;;2.97;100.00
34482;BME280;20720;48.886;9.388;2023-01-30T07:27:30;98876.41;;;2.90;100.00
34482;BME280;20720;48.886;9.388;2023-01-30T07:29:55;98878.19;;;2.61;100.00
34482;BME280;20720;48.886;9.388;2023-01-30T07:32:21;98880.34;;;2.65;100.00
34482;BME280;20720;48.886;9.388;2023-01-30T07:34:46;98881.16;;;2.56;100.00
34482;BME280;20720;48.886;9.388;2023-01-30T07:37:12;98876.50;;;3.27;100.00
34482;BME280;20720;48.886;9.388;2023-01-30T07:39:37;98872.31;;;2.78;100.00
34482;BME280;20720;48.886;9.388;2023-01-30T07:42:03;98880.84;;;3.36;100.00
34482;BME280;20720;48.886;9.388;2023-01-30T07:44:28;98884.44;;;3.71;100.00
34482;BME280;20720;48.886;9.388;2023-01-30T07:46:54;98886.22;;;3.06;100.00
34482;BME280;20720;48.886;9.388;2023-01-30T07:49:19;98884.97;;;3.29;100.00
34482;BME280;20720;48.886;9.388;2023-01-30T07:51:45;98879.41;;;2.76;100.00
34482;BME280;20720;48.886;9.388;2023-01-30T07:54:10;98880.34;;;2.94;100.00
34482;BME280;20720;48.886;9.388;2023-01-30T07:56:35;98874.84;;;3.26;100.00
34482;BME280;20720;48.886;9.388;2023-01-30T07:59:01;98863.94;;;3.13;100.00
34482;BME280;20720;48.886;9.388;2023-01-30T08:01:26;98868.59;;;3.09;100.00
34482;BME280;20720;48.886;9.388;2023-01-30T08:03:52;98874.34;;;2.94;100.00
34482;BME280;20720;48.886;9.388;2023-01-30T08:06:17;98863.03;;;2.95;100.00
34482;BME280;20720;48.886;9.388;2023-01-30T08:08:43;98867.50;;;3.12;100.00
34482;BME280;20720;48.886;9.388;2023-01-30T08:11:09;98864.22;;;3.10;100.00
34482;BME280;20720;48.886;9.388;2023-01-30T08:13:34;98879.81;;;2.91;100.00
34482;BME280;20720;48.886;9.388;2023-01-30T08:16:05;98898.91;;;3.18;100.00
34482;BME280;20720;48.886;9.388;2023-01-30T08:18:31;98906.22;;;3.61;100.00
34482;BME280;20720;48.886;9.388;2023-01-30T08:21:02;98891.47;;;3.52;100.00
34482;BME280;20720;48.886;9.388;2023-01-30T08:23:29;98852.50;;;2.96;100.00
34482;BME280;20720;48.886;9.388;2023-01-30T08:26:04;98832.25;;;3.19;100.00
34482;BME280;20720;48.886;9.388;2023-01-30T08:28:30;98853.31;;;3.16;100.00
34482;BME280;20720;48.886;9.388;2023-01-30T08:30:56;98829.72;;;3.46;100.00
34482;BME280;20720;48.886;9.388;2023-01-30T08:33:22;98820.31;;;3.35;100.00
34482;BME280;20720;48.886;9.388;2023-01-30T08:35:48;98819.00;;;3.22;100.00
34482;BME280;20720;48.886;9.388;2023-01-30T08:38:14;98810.59;;;2.91;100.00
34482;BME280;20720;48.886;9.388;2023-01-30T08:40:39;98801.34;;;3.35;100.00
34482;BME280;20720;48.886;9.388;2023-01-30T08:43:05;98801.34;;;3.35;100.00
34482;BME280;20720;48.886;9.388;2023-01-30T08:45:30;98817.84;;;2.88;100.00
34482;BME280;20720;48.886;9.388;2023-01-30T08:48:03;98816.13;;;3.15;100.00
34482;BME280;20720;48.886;9.388;2023-01-30T08:50:28;98808.69;;;3.39;100.00
34482;BME280;20720;48.886;9.388;2023-01-30T08:52:55;98802.41;;;3.42;100.00
34482;BME280;20720;48.886;9.388;2023-01-30T08:55:21;98802.88;;;3.55;100.00
34482;BME280;20720;48.886;9.388;2023-01-30T08:57:46;98818.38;;;3.74;100.00
34482;BME280;20720;48.886;9.388;2023-01-30T09:00:13;98813.88;;;3.39;100.00
34482;BME280;20720;48.886;9.388;2023-01-30T09:02:38;98799.13;;;3.40;100.00
34482;BME280;20720;48.886;9.388;2023-01-30T09:05:04;98778.47;;;3.48;100.00
34482;BME280;20720;48.886;9.388;2023-01-30T09:07:30;98774.22;;;3.47;100.00
34482;BME280;20720;48.886;9.388;2023-01-30T09:09:56;98780.63;;;3.43;100.00
34482;BME280;20720;48.886;9.388;2023-01-30T09:12:22;98779.00;;;3.96;100.00
34482;BME280;20720;48.886;9.388;2023-01-30T09:14:47;98771.78;;;3.72;100.00
34482;BME280;20720;48.886;9.388;2023-01-30T09:17:12;98781.13;;;3.83;100.00
34482;BME280;20720;48.886;9.388;2023-01-30T09:19:38;98779.00;;;3.96;100.00
34482;BME280;20720;48.886;9.388;2023-01-30T09:22:04;98782.94;;;4.00;100.00
34482;BME280;20720;48.886;9.388;2023-01-30T09:24:29;98795.91;;;4.27;100.00
34482;BME280;20720;48.886;9.388;2023-01-30T09:26:55;98783.41;;;4.13;100.00
34482;BME280;20720;48.886;9.388;2023-01-30T09:29:24;98782.19;;;3.90;100.00
34482;BME280;20720;48.886;9.388;2023-01-30T09:31:49;98774.22;;;4.01;100.00
34482;BME280;20720;48.886;9.388;2023-01-30T09:34:14;98775.47;;;4.15;100.00
34482;BME280;20720;48.886;9.388;2023-01-30T09:36:40;98776.91;;;4.44;100.00
34482;BME280;20720;48.886;9.388;2023-01-30T09:39:06;98788.47;;;4.32;100.00
34482;BME280;20720;48.886;9.388;2023-01-30T09:41:44;98776.72;;;3.93;100.00
34482;BME280;20720;48.886;9.388;2023-01-30T09:47:12;98765.59;;;4.18;100.00
34482;BME280;20720;48.886;9.388;2023-01-30T09:55:17;98752.13;;;4.05;100.00
34482;BME280;20720;48.886;9.388;2023-01-30T09:57:49;98735.13;;;4.28;100.00
34482;BME280;20720;48.886;9.388;2023-01-30T10:00:30;98715.16;;;4.29;100.00
34482;BME280;20720;48.886;9.388;2023-01-30T10:05:45;98723.22;;;4.43;100.00
34482;BME280;20720;48.886;9.388;2023-01-30T10:08:30;98717.25;;;4.68;100.00
34482;BME280;20720;48.886;9.388;2023-01-30T10:14:17;98716.91;;;4.63;100.00
34482;BME280;20720;48.886;9.388;2023-01-30T10:17:03;98705.81;;;4.61;100.00
34482;BME280;20720;48.886;9.388;2023-01-30T10:22:16;98709.69;;;4.83;100.00
34482;BME280;20720;48.886;9.388;2023-01-30T10:24:55;98713.44;;;4.81;100.00
34482;BME280;20720;48.886;9.388;2023-01-30T10:27:24;98721.38;;;4.36;100.00
34482;BME280;20720;48.886;9.388;2023-01-30T10:29:55;98710.22;;;5.20;100.00
34482;BME280;20720;48.886;9.388;2023-01-30T10:33:03;98711.41;;;5.26;100.00
34482;BME280;20720;48.886;9.388;2023-01-30T10:35:34;98717.41;;;5.26;100.00
34482;BME280;20720;48.886;9.388;2023-01-30T10:38:19;98719.66;;;5.21;100.00
34482;BME280;20720;48.886;9.388;2023-01-30T10:40:56;98704.25;;;5.28;100.00
34482;BME280;20720;48.886;9.388;2023-01-30T10:43:43;98696.78;;;5.83;100.00
34482;BME280;20720;48.886;9.388;2023-01-30T10:51:43;98700.72;;;5.87;100.00
34482;BME280;20720;48.886;9.388;2023-01-30T10:54:12;98693.38;;;5.40;100.00
34482;BME280;20720;48.886;9.388;2023-01-30T10:56:59;98691.34;;;5.26;100.00
34482;BME280;20720;48.886;9.388;2023-01-30T10:59:46;98692.47;;;5.57;100.00
34482;BME280;20720;48.886;9.388;2023-01-30T11:02:34;98696.00;;;5.98;100.00
34482;BME280;20720;48.886;9.388;2023-01-30T11:05:26;98703.16;;;5.88;100.00
34482;BME280;20720;48.886;9.388;2023-01-30T11:07:53;98708.88;;;6.00;100.00
34482;BME280;20720;48.886;9.388;2023-01-30T11:10:22;98717.84;;;5.97;100.00
34482;BME280;20720;48.886;9.388;2023-01-30T11:12:59;98716.03;;;5.48;100.00
34482;BME280;20720;48.886;9.388;2023-01-30T11:15:41;98712.00;;;5.20;100.00
34482;BME280;20720;48.886;9.388;2023-01-30T11:18:08;98702.06;;;5.57;100.00
34482;BME280;20720;48.886;9.388;2023-01-30T11:20:42;98695.78;;;5.26;100.00
34482;BME280;20720;48.886;9.388;2023-01-30T11:23:41;98694.03;;;5.92;100.00
34482;BME280;20720;48.886;9.388;2023-01-30T11:26:18;98697.88;;;5.30;100.00
34482;BME280;20720;48.886;9.388;2023-01-30T11:28:45;98687.44;;;5.72;100.00
34482;BME280;20720;48.886;9.388;2023-01-30T11:31:20;98695.13;;;5.32;100.00
34482;BME280;20720;48.886;9.388;2023-01-30T11:34:10;98687.13;;;5.75;100.00
34482;BME280;20720;48.886;9.388;2023-01-30T11:36:36;98696.81;;;5.49;100.00
34482;BME280;20720;48.886;9.388;2023-01-30T11:39:17;98698.06;;;5.79;100.00
34482;BME280;20720;48.886;9.388;2023-01-30T11:44:48;98685.88;;;5.95;100.00
34482;BME280;20720;48.886;9.388;2023-01-30T11:47:23;98701.84;;;5.42;100.00
34482;BME280;20720;48.886;9.388;2023-01-30T11:49:52;98692.09;;;5.44;100.00
34482;BME280;20720;48.886;9.388;2023-01-30T11:52:25;98694.75;;;6.26;100.00
34482;BME280;20720;48.886;9.388;2023-01-30T11:54:52;98688.25;;;5.72;100.00
34482;BME280;20720;48.886;9.388;2023-01-30T11:57:18;98685.56;;;5.98;100.00
34482;BME280;20720;48.886;9.388;2023-01-30T11:59:54;98682.97;;;6.14;100.00
34482;BME280;20720;48.886;9.388;2023-01-30T12:02:27;98673.16;;;5.34;100.00
34482;BME280;20720;48.886;9.388;2023-01-30T12:04:56;98664.97;;;5.71;100.00
34482;BME280;20720;48.886;9.388;2023-01-30T12:07:35;98655.41;;;6.04;100.00
34482;BME280;20720;48.886;9.388;2023-01-30T12:10:18;98650.53;;;5.35;100.00
34482;BME280;20720;48.886;9.388;2023-01-30T12:12:51;98633.69;;;5.71;100.00
34482;BME280;20720;48.886;9.388;2023-01-30T12:15:33;98636.63;;;5.76;100.00
34482;BME280;20720;48.886;9.388;2023-01-30T12:19:11;98630.03;;;5.40;100.00
34482;BME280;20720;48.886;9.388;2023-01-30T12:21:32;98625.75;;;4.81;100.00
34482;BME280;20720;48.886;9.388;2023-01-30T12:24:19;98621.16;;;5.09;100.00
34482;BME280;20720;48.886;9.388;2023-01-30T12:27:00;98627.16;;;5.67;100.00
34482;BME280;20720;48.886;9.388;2023-01-30T12:29:32;98636.88;;;5.41;100.00
34482;BME280;20720;48.886;9.388;2023-01-30T12:32:16;98637.28;;;5.12;100.00
34482;BME280;20720;48.886;9.388;2023-01-30T12:34:44;98634.22;;;5.25;100.00
34482;BME280;20720;48.886;9.388;2023-01-30T12:40:50;98628.84;;;4.85;100.00
34482;BME280;20720;48.886;9.388;2023-01-30T12:45:33;98630.38;;;4.61;100.00
34482;BME280;20720;48.886;9.388;2023-01-30T12:51:09;98645.38;;;5.09;100.00
34482;BME280;20720;48.886;9.388;2023-01-30T12:56:19;98656.13;;;5.06;100.00
34482;BME280;20720;48.886;9.388;2023-01-30T12:59:18;98655.50;;;5.12;100.00
34482;BME280;20720;48.886;9.388;2023-01-30T13:05:25;98663.69;;;5.25;100.00
34482;BME280;20720;48.886;9.388;2023-01-30T13:10:51;98665.88;;;4.70;100.00
34482;BME280;20720;48.886;9.388;2023-01-30T13:16:54;98642.22;;;4.90;100.00
34482;BME280;20720;48.886;9.388;2023-01-30T13:19:39;98638.78;;;5.23;100.00
34482;BME280;20720;48.886;9.388;2023-01-30T13:22:15;98643.78;;;5.58;100.00
34482;BME280;20720;48.886;9.388;2023-01-30T13:24:56;98642.84;;;5.25;100.00
34482;BME280;20720;48.886;9.388;2023-01-30T13:27:24;98653.66;;;5.38;100.00
34482;BME280;20720;48.886;9.388;2023-01-30T13:29:52;98661.22;;;5.82;100.00
34482;BME280;20720;48.886;9.388;2023-01-30T13:32:32;98676.66;;;5.59;100.00
34482;BME280;20720;48.886;9.388;2023-01-30T13:35:00;98686.97;;;5.27;100.00
34482;BME280;20720;48.886;9.388;2023-01-30T13:37:28;98676.06;;;5.23;100.00
34482;BME280;20720;48.886;9.388;2023-01-30T13:39:57;98680.69;;;5.45;100.00
34482;BME280;20720;48.886;9.388;2023-01-30T13:42:37;98701.00;;;5.34;100.00
34482;BME280;20720;48.886;9.388;2023-01-30T13:45:06;98719.03;;;5.69;100.00
34482;BME280;20720;48.886;9.388;2023-01-30T13:56:01;98741.28;;;5.89;100.00
34482;BME280;20720;48.886;9.388;2023-01-30T13:58:42;98741.19;;;5.65;100.00
34482;BME280;20720;48.886;9.388;2023-01-30T14:01:10;98736.06;;;5.89;100.00
34482;BME280;20720;48.886;9.388;2023-01-30T14:03:37;98737.59;;;5.58;100.00
34482;BME280;20720;48.886;9.388;2023-01-30T14:06:11;98746.09;;;5.76;100.00
34482;BME280;20720;48.886;9.388;2023-01-30T14:11:33;98754.38;;;6.05;100.00
34482;BME280;20720;48.886;9.388;2023-01-30T14:14:24;98750.00;;;6.22;100.00
34482;BME280;20720;48.886;9.388;2023-01-30T14:16:53;98754.59;;;5.78;100.00
34482;BME280;20720;48.886;9.388;2023-01-30T14:22:02;98759.47;;;6.71;100.00
34482;BME280;20720;48.886;9.388;2023-01-30T14:24:28;98758.00;;;6.44;100.00
34482;BME280;20720;48.886;9.388;2023-01-30T14:27:02;98748.22;;;6.54;100.00
34482;BME280;20720;48.886;9.388;2023-01-30T14:48:49;98792.97;;;5.68;100.00
34482;BME280;20720;48.886;9.388;2023-01-30T14:51:20;98777.56;;;6.40;100.00
34482;BME280;20720;48.886;9.388;2023-01-30T14:56:48;98805.66;;;5.97;100.00
34482;BME280;20720;48.886;9.388;2023-01-30T15:04:25;98822.81;;;5.99;100.00
34482;BME280;20720;48.886;9.388;2023-01-30T15:06:52;98803.84;;;5.89;100.00
34482;BME280;20720;48.886;9.388;2023-01-30T15:09:20;98822.59;;;5.59;100.00
34482;BME280;20720;48.886;9.388;2023-01-30T15:11:55;98821.75;;;5.58;100.00
34482;BME280;20720;48.886;9.388;2023-01-30T15:14:31;98820.19;;;5.40;100.00
34482;BME280;20720;48.886;9.388;2023-01-30T15:17:38;98819.19;;;5.33;100.00
34482;BME280;20720;48.886;9.388;2023-01-30T15:20:08;98816.47;;;5.42;100.00